Flight Track Log - Related Links

Times and Time Zones

All times are in EDT time to prevent confusion due to time zone crossing. See the N779NC flight status page for this flight to view local times or setup timezone preferences in your user account.

Time Position Orientation Groundspeed Altitude Reporting Facility
EDT Latitude Longitude Course Direction KTS MPH feet Rate Location/Type
Mon 05:39:34 PM 33.6500 -84.4667 327° Northwest 175 201 2,400  Level Atlanta TRACON
Mon 05:40:34 PM 33.6833 -84.5500 296° West 250 288 4,100 2,100 Climbing Atlanta TRACON
Mon 05:41:34 PM 33.7333 -84.6000 320° Northwest 276 318 6,600 2,400 Climbing Atlanta TRACON
Mon 05:42:00 PM 34.0322 -84.5212 349° North  Level FlightAware Approximate
Mon 05:42:34 PM 33.8167 -84.6167 351° North 288 331 8,900  Level Atlanta TRACON
Mon 05:43:00 PM 34.1256 -84.5454 347° North  Level FlightAware Approximate
Mon 05:43:33 PM 33.8847 -84.6244 355° North 320 368 10,600  Level Atlanta Center
Mon 05:44:00 PM 34.2205 -84.5826 327° Northwest  Level FlightAware Approximate
Mon 05:44:33 PM 33.9764 -84.6300 357° North 320 368 12,500  Level Atlanta Center
Mon 05:45:33 PM 34.0828 -84.6383 356° North 330 380 14,300 1,800 Climbing Atlanta Center
Mon 05:46:33 PM 34.1811 -84.6439 357° North 343 395 16,100 1,750 Climbing Atlanta Center
Mon 05:47:33 PM 34.2767 -84.6847 341° North 350 403 17,800 1,700 Climbing Atlanta Center
Mon 05:48:33 PM 34.3661 -84.7458 331° Northwest 357 411 19,500 1,700 Climbing Atlanta Center
Mon 05:49:33 PM 34.4578 -84.8047 332° Northwest 374 430 21,200 1,450 Climbing Atlanta Center
Mon 05:50:33 PM 34.5492 -84.8686 330° Northwest 374 430 22,400 1,100 Climbing Atlanta Center
Mon 05:51:33 PM 34.6467 -84.9325 332° Northwest 388 447 23,400 519 Climbing Atlanta Center
Mon 05:53:38 PM 34.8447 -85.0739 330° Northwest 412 474 24,000 195 Climbing Memphis Center
Mon 05:54:38 PM 34.9481 -85.1508 329° Northwest 429 494 24,000  Level Memphis Center
Mon 05:55:38 PM 35.0256 -85.2603 311° West 424 488 24,000  Level Memphis Center
Mon 05:56:38 PM 35.1131 -85.3539 319° Northwest 424 488 24,000  Level Memphis Center
Mon 05:57:38 PM 35.2028 -85.4628 315° West 419 482 24,000 -300 Level Memphis Center
Mon 05:58:38 PM 35.2758 -85.5706 310° West 419 482 23,400 -1,350 Descending Memphis Center
Mon 05:59:38 PM 35.3483 -85.6681 312° West 405 466 21,300 -2,500 Descending Memphis Center
Mon 06:00:38 PM 35.4189 -85.7661 311° West 393 452 18,400 -2,800 Descending Memphis Center
Mon 06:01:38 PM 35.4872 -85.8719 308° West 393 452 15,700 -2,700 Descending Memphis Center
Mon 06:02:38 PM 35.5658 -85.9647 316° Northwest 393 452 13,000 -2,100 Descending Memphis Center
Mon 06:03:38 PM 35.6478 -86.0472 321° Northwest 393 452 11,500 -1,000 Descending Memphis Center
Mon 06:04:38 PM 35.7047 -86.1286 311° West 367 422 11,000 -750 Descending Memphis Center
Mon 06:05:38 PM 35.7722 -86.2069 317° Northwest 342 394 10,000 -1,150 Descending Memphis Center
Mon 06:06:38 PM 35.8206 -86.2814 309° West 306 352 8,700 -1,600 Descending Memphis Center
Mon 06:07:38 PM 35.8567 -86.3692 297° West 285 328 6,800 -1,700 Descending Memphis Center
Mon 06:08:38 PM 35.8928 -86.4519 298° West 279 321 5,300 -1,600 Descending Memphis Center
Mon 06:09:38 PM 35.9264 -86.5300 298° West 263 303 3,600 -1,250 Descending Memphis Center
Mon 06:10:38 PM 35.9603 -86.6103 298° West 252 290 2,800 -800 Descending Memphis Center

Login

Don't have an account? Register now (free) for customized features, flight alerts, and more!